sensor_id;sensor_type;location;lat;lon;timestamp;temperature;humidity
24252;DHT22;12380;51.118;4.176;2023-10-31T00:01:28;10.90;99.90
24252;DHT22;12380;51.118;4.176;2023-10-31T00:03:53;11.00;99.90
24252;DHT22;12380;51.118;4.176;2023-10-31T00:06:19;11.10;99.90
24252;DHT22;12380;51.118;4.176;2023-10-31T00:08:44;11.10;99.90
24252;DHT22;12380;51.118;4.176;2023-10-31T00:11:10;11.10;99.90
24252;DHT22;12380;51.118;4.176;2023-10-31T00:13:36;11.10;99.90
24252;DHT22;12380;51.118;4.176;2023-10-31T00:16:01;11.00;99.90
24252;DHT22;12380;51.118;4.176;2023-10-31T00:18:27;11.10;99.90
24252;DHT22;12380;51.118;4.176;2023-10-31T00:20:52;11.10;99.90
24252;DHT22;12380;51.118;4.176;2023-10-31T00:23:18;11.20;99.90
24252;DHT22;12380;51.118;4.176;2023-10-31T00:25:43;11.10;99.90
24252;DHT22;12380;51.118;4.176;2023-10-31T00:28:09;11.00;99.90
24252;DHT22;12380;51.118;4.176;2023-10-31T00:30:34;11.10;99.90
24252;DHT22;12380;51.118;4.176;2023-10-31T00:33:00;11.10;99.90
24252;DHT22;12380;51.118;4.176;2023-10-31T00:35:25;11.10;99.90
24252;DHT22;12380;51.118;4.176;2023-10-31T00:37:51;11.10;99.90
24252;DHT22;12380;51.118;4.176;2023-10-31T00:40:16;11.20;99.90
24252;DHT22;12380;51.118;4.176;2023-10-31T00:42:43;11.20;99.90
24252;DHT22;12380;51.118;4.176;2023-10-31T00:45:08;11.10;99.90
24252;DHT22;12380;51.118;4.176;2023-10-31T00:47:36;11.10;99.90
24252;DHT22;12380;51.118;4.176;2023-10-31T00:50:02;11.10;99.90
24252;DHT22;12380;51.118;4.176;2023-10-31T00:52:27;11.10;99.90
24252;DHT22;12380;51.118;4.176;2023-10-31T00:54:55;11.00;99.90
24252;DHT22;12380;51.118;4.176;2023-10-31T00:57:21;11.00;99.90
24252;DHT22;12380;51.118;4.176;2023-10-31T00:59:46;11.00;99.90
24252;DHT22;12380;51.118;4.176;2023-10-31T01:02:12;10.90;99.90
24252;DHT22;12380;51.118;4.176;2023-10-31T01:04:38;11.00;99.90
24252;DHT22;12380;51.118;4.176;2023-10-31T01:07:04;11.10;99.90
24252;DHT22;12380;51.118;4.176;2023-10-31T01:09:29;11.10;99.90
24252;DHT22;12380;51.118;4.176;2023-10-31T01:11:55;11.00;99.90
24252;DHT22;12380;51.118;4.176;2023-10-31T01:14:20;11.00;99.90
24252;DHT22;12380;51.118;4.176;2023-10-31T01:16:46;11.00;99.90
24252;DHT22;12380;51.118;4.176;2023-10-31T01:19:14;10.90;99.90
24252;DHT22;12380;51.118;4.176;2023-10-31T01:21:39;11.00;99.90
24252;DHT22;12380;51.118;4.176;2023-10-31T01:24:05;11.00;99.90
24252;DHT22;12380;51.118;4.176;2023-10-31T01:26:34;10.90;99.90
24252;DHT22;12380;51.118;4.176;2023-10-31T01:29:01;11.00;99.90
24252;DHT22;12380;51.118;4.176;2023-10-31T01:31:26;11.00;99.90
24252;DHT22;12380;51.118;4.176;2023-10-31T01:33:52;11.00;99.90
24252;DHT22;12380;51.118;4.176;2023-10-31T01:36:17;11.10;99.90
24252;DHT22;12380;51.118;4.176;2023-10-31T01:38:45;11.10;99.90
24252;DHT22;12380;51.118;4.176;2023-10-31T01:41:11;11.10;99.90
24252;DHT22;12380;51.118;4.176;2023-10-31T01:43:37;11.20;99.90
24252;DHT22;12380;51.118;4.176;2023-10-31T01:46:03;11.20;99.90
24252;DHT22;12380;51.118;4.176;2023-10-31T01:48:29;11.10;99.90
24252;DHT22;12380;51.118;4.176;2023-10-31T01:50:56;11.20;99.90
24252;DHT22;12380;51.118;4.176;2023-10-31T01:53:22;11.10;99.90
24252;DHT22;12380;51.118;4.176;2023-10-31T01:55:49;11.30;99.90
24252;DHT22;12380;51.118;4.176;2023-10-31T01:58:15;11.20;99.90
24252;DHT22;12380;51.118;4.176;2023-10-31T02:00:41;11.00;99.90
24252;DHT22;12380;51.118;4.176;2023-10-31T02:03:08;11.00;99.90
24252;DHT22;12380;51.118;4.176;2023-10-31T02:05:33;11.00;99.90
24252;DHT22;12380;51.118;4.176;2023-10-31T02:08:00;11.10;99.90
24252;DHT22;12380;51.118;4.176;2023-10-31T02:10:25;11.10;99.90
24252;DHT22;12380;51.118;4.176;2023-10-31T02:12:51;11.10;99.90
24252;DHT22;12380;51.118;4.176;2023-10-31T02:15:16;11.10;99.90
24252;DHT22;12380;51.118;4.176;2023-10-31T02:17:42;11.10;99.90
24252;DHT22;12380;51.118;4.176;2023-10-31T02:20:07;11.10;99.90
24252;DHT22;12380;51.118;4.176;2023-10-31T02:22:33;11.10;99.90
24252;DHT22;12380;51.118;4.176;2023-10-31T02:24:59;11.20;99.90
24252;DHT22;12380;51.118;4.176;2023-10-31T02:27:24;11.10;99.90
24252;DHT22;12380;51.118;4.176;2023-10-31T02:29:50;11.10;99.90
24252;DHT22;12380;51.118;4.176;2023-10-31T02:32:15;11.10;99.90
24252;DHT22;12380;51.118;4.176;2023-10-31T02:34:41;11.00;99.90
24252;DHT22;12380;51.118;4.176;2023-10-31T02:37:06;11.10;99.90
24252;DHT22;12380;51.118;4.176;2023-10-31T02:39:32;11.10;99.90
24252;DHT22;12380;51.118;4.176;2023-10-31T02:41:58;11.00;99.90
24252;DHT22;12380;51.118;4.176;2023-10-31T02:44:23;11.00;99.90
24252;DHT22;12380;51.118;4.176;2023-10-31T02:46:49;10.90;99.90
24252;DHT22;12380;51.118;4.176;2023-10-31T02:49:14;11.00;99.90
24252;DHT22;12380;51.118;4.176;2023-10-31T02:51:40;11.00;99.90
24252;DHT22;12380;51.118;4.176;2023-10-31T02:54:06;10.80;99.90
24252;DHT22;12380;51.118;4.176;2023-10-31T02:56:31;10.70;99.90
24252;DHT22;12380;51.118;4.176;2023-10-31T02:58:57;10.90;99.90
24252;DHT22;12380;51.118;4.176;2023-10-31T03:01:22;10.80;99.90
24252;DHT22;12380;51.118;4.176;2023-10-31T03:03:48;10.80;99.90
24252;DHT22;12380;51.118;4.176;2023-10-31T03:06:13;10.80;99.90
24252;DHT22;12380;51.118;4.176;2023-10-31T03:08:39;10.70;99.90
24252;DHT22;12380;51.118;4.176;2023-10-31T03:11:07;10.70;99.90
24252;DHT22;12380;51.118;4.176;2023-10-31T03:13:32;10.70;99.90
24252;DHT22;12380;51.118;4.176;2023-10-31T03:15:58;10.60;99.90
24252;DHT22;12380;51.118;4.176;2023-10-31T03:18:23;10.50;99.90
24252;DHT22;12380;51.118;4.176;2023-10-31T03:20:49;10.50;99.90
24252;DHT22;12380;51.118;4.176;2023-10-31T03:23:14;10.50;99.90
24252;DHT22;12380;51.118;4.176;2023-10-31T03:25:40;10.40;99.90
24252;DHT22;12380;51.118;4.176;2023-10-31T03:28:19;10.30;99.90
24252;DHT22;12380;51.118;4.176;2023-10-31T03:30:45;10.20;99.90
24252;DHT22;12380;51.118;4.176;2023-10-31T03:33:14;10.20;99.90
24252;DHT22;12380;51.118;4.176;2023-10-31T03:35:39;10.20;99.90
24252;DHT22;12380;51.118;4.176;2023-10-31T03:38:05;10.10;99.90
24252;DHT22;12380;51.118;4.176;2023-10-31T03:40:30;10.20;99.90
24252;DHT22;12380;51.118;4.176;2023-10-31T03:42:58;10.20;99.90
24252;DHT22;12380;51.118;4.176;2023-10-31T03:45:24;10.00;99.90
24252;DHT22;12380;51.118;4.176;2023-10-31T03:47:49;10.00;99.90
24252;DHT22;12380;51.118;4.176;2023-10-31T03:50:15;9.90;99.90
24252;DHT22;12380;51.118;4.176;2023-10-31T03:52:40;9.90;99.90
24252;DHT22;12380;51.118;4.176;2023-10-31T03:55:06;9.90;99.90
24252;DHT22;12380;51.118;4.176;2023-10-31T03:57:31;9.90;99.90
24252;DHT22;12380;51.118;4.176;2023-10-31T03:59:57;10.00;99.90
24252;DHT22;12380;51.118;4.176;2023-10-31T04:02:22;10.00;99.90
24252;DHT22;12380;51.118;4.176;2023-10-31T04:04:48;10.00;99.90
24252;DHT22;12380;51.118;4.176;2023-10-31T04:07:16;10.00;99.90
24252;DHT22;12380;51.118;4.176;2023-10-31T04:09:42;10.10;99.90
24252;DHT22;12380;51.118;4.176;2023-10-31T04:12:08;10.00;99.90
24252;DHT22;12380;51.118;4.176;2023-10-31T04:14:34;10.00;99.90
24252;DHT22;12380;51.118;4.176;2023-10-31T04:16:59;10.00;99.90
24252;DHT22;12380;51.118;4.176;2023-10-31T04:19:25;10.10;99.90
24252;DHT22;12380;51.118;4.176;2023-10-31T04:21:52;10.00;99.90
24252;DHT22;12380;51.118;4.176;2023-10-31T04:24:18;10.10;99.90
24252;DHT22;12380;51.118;4.176;2023-10-31T04:26:43;10.00;99.90
24252;DHT22;12380;51.118;4.176;2023-10-31T04:29:09;10.00;99.90
24252;DHT22;12380;51.118;4.176;2023-10-31T04:31:34;10.10;99.90
24252;DHT22;12380;51.118;4.176;2023-10-31T04:34:00;10.10;99.90
24252;DHT22;12380;51.118;4.176;2023-10-31T04:36:25;10.20;99.90
24252;DHT22;12380;51.118;4.176;2023-10-31T04:38:51;10.10;99.90
24252;DHT22;12380;51.118;4.176;2023-10-31T04:41:17;10.10;99.90
24252;DHT22;12380;51.118;4.176;2023-10-31T04:43:42;10.00;99.90
24252;DHT22;12380;51.118;4.176;2023-10-31T04:46:08;10.10;99.90
24252;DHT22;12380;51.118;4.176;2023-10-31T04:48:33;10.10;99.90
24252;DHT22;12380;51.118;4.176;2023-10-31T04:50:59;10.20;99.90
24252;DHT22;12380;51.118;4.176;2023-10-31T04:53:24;10.10;99.90
24252;DHT22;12380;51.118;4.176;2023-10-31T04:55:50;9.90;99.90
24252;DHT22;12380;51.118;4.176;2023-10-31T04:58:15;9.90;99.90
24252;DHT22;12380;51.118;4.176;2023-10-31T05:00:41;9.90;99.90
24252;DHT22;12380;51.118;4.176;2023-10-31T05:03:06;9.90;99.90
24252;DHT22;12380;51.118;4.176;2023-10-31T05:05:32;9.80;99.90
24252;DHT22;12380;51.118;4.176;2023-10-31T05:07:57;9.80;99.90
24252;DHT22;12380;51.118;4.176;2023-10-31T05:10:23;9.90;99.90
24252;DHT22;12380;51.118;4.176;2023-10-31T05:12:49;9.90;99.90
24252;DHT22;12380;51.118;4.176;2023-10-31T05:15:18;9.80;99.90
24252;DHT22;12380;51.118;4.176;2023-10-31T05:17:43;9.80;99.90
24252;DHT22;12380;51.118;4.176;2023-10-31T05:20:09;9.70;99.90
24252;DHT22;12380;51.118;4.176;2023-10-31T05:22:36;9.80;99.90
24252;DHT22;12380;51.118;4.176;2023-10-31T05:25:02;9.80;99.90
24252;DHT22;12380;51.118;4.176;2023-10-31T05:27:28;9.90;99.90
24252;DHT22;12380;51.118;4.176;2023-10-31T05:29:54;9.80;99.90
24252;DHT22;12380;51.118;4.176;2023-10-31T05:32:19;9.70;99.90
24252;DHT22;12380;51.118;4.176;2023-10-31T05:34:45;9.60;99.90
24252;DHT22;12380;51.118;4.176;2023-10-31T05:37:13;9.70;99.90
24252;DHT22;12380;51.118;4.176;2023-10-31T05:39:38;9.60;99.90
24252;DHT22;12380;51.118;4.176;2023-10-31T05:42:06;9.60;99.90
24252;DHT22;12380;51.118;4.176;2023-10-31T05:44:34;9.60;99.90
24252;DHT22;12380;51.118;4.176;2023-10-31T05:47:00;9.50;99.90
24252;DHT22;12380;51.118;4.176;2023-10-31T05:49:25;9.50;99.90
24252;DHT22;12380;51.118;4.176;2023-10-31T05:51:51;9.50;99.90
24252;DHT22;12380;51.118;4.176;2023-10-31T05:54:17;9.50;99.90
24252;DHT22;12380;51.118;4.176;2023-10-31T05:56:42;9.50;99.90
24252;DHT22;12380;51.118;4.176;2023-10-31T05:59:08;9.60;99.90
24252;DHT22;12380;51.118;4.176;2023-10-31T06:01:34;9.60;99.90
24252;DHT22;12380;51.118;4.176;2023-10-31T06:03:59;9.60;99.90
24252;DHT22;12380;51.118;4.176;2023-10-31T06:06:25;9.50;99.90
24252;DHT22;12380;51.118;4.176;2023-10-31T06:08:50;9.60;99.90
24252;DHT22;12380;51.118;4.176;2023-10-31T06:11:16;9.60;99.90
24252;DHT22;12380;51.118;4.176;2023-10-31T06:13:41;9.70;99.90
24252;DHT22;12380;51.118;4.176;2023-10-31T06:16:07;9.50;99.90
24252;DHT22;12380;51.118;4.176;2023-10-31T06:18:33;9.50;99.90
24252;DHT22;12380;51.118;4.176;2023-10-31T06:20:59;9.50;99.90
24252;DHT22;12380;51.118;4.176;2023-10-31T06:23:24;9.50;99.90
24252;DHT22;12380;51.118;4.176;2023-10-31T06:25:50;9.50;99.90
24252;DHT22;12380;51.118;4.176;2023-10-31T06:28:15;9.50;99.90
24252;DHT22;12380;51.118;4.176;2023-10-31T06:30:41;9.50;99.90
24252;DHT22;12380;51.118;4.176;2023-10-31T06:33:06;9.50;99.90
24252;DHT22;12380;51.118;4.176;2023-10-31T06:35:36;9.40;99.90
24252;DHT22;12380;51.118;4.176;2023-10-31T06:38:03;9.60;99.90
24252;DHT22;12380;51.118;4.176;2023-10-31T06:40:29;9.50;99.90
24252;DHT22;12380;51.118;4.176;2023-10-31T06:42:54;9.60;99.90
24252;DHT22;12380;51.118;4.176;2023-10-31T06:45:20;9.70;99.90
24252;DHT22;12380;51.118;4.176;2023-10-31T06:47:46;9.60;99.90
24252;DHT22;12380;51.118;4.176;2023-10-31T06:50:14;9.60;99.90
24252;DHT22;12380;51.118;4.176;2023-10-31T06:52:39;9.60;99.90
24252;DHT22;12380;51.118;4.176;2023-10-31T06:55:05;9.60;99.90
24252;DHT22;12380;51.118;4.176;2023-10-31T06:57:31;9.70;99.90
24252;DHT22;12380;51.118;4.176;2023-10-31T06:59:56;9.70;99.90
24252;DHT22;12380;51.118;4.176;2023-10-31T07:02:22;9.70;99.90
24252;DHT22;12380;51.118;4.176;2023-10-31T07:04:47;9.70;99.90
24252;DHT22;12380;51.118;4.176;2023-10-31T07:07:14;9.90;99.90
24252;DHT22;12380;51.118;4.176;2023-10-31T07:09:40;9.80;99.90
24252;DHT22;12380;51.118;4.176;2023-10-31T07:12:05;9.90;99.90
24252;DHT22;12380;51.118;4.176;2023-10-31T07:14:31;9.80;99.90
24252;DHT22;12380;51.118;4.176;2023-10-31T07:16:57;9.80;99.90
24252;DHT22;12380;51.118;4.176;2023-10-31T07:19:22;9.80;99.90
24252;DHT22;12380;51.118;4.176;2023-10-31T07:21:50;9.80;99.90
24252;DHT22;12380;51.118;4.176;2023-10-31T07:24:16;9.80;99.90
24252;DHT22;12380;51.118;4.176;2023-10-31T07:26:41;9.90;99.90
24252;DHT22;12380;51.118;4.176;2023-10-31T07:29:07;9.90;99.90
24252;DHT22;12380;51.118;4.176;2023-10-31T07:31:34;9.90;99.90
24252;DHT22;12380;51.118;4.176;2023-10-31T07:34:04;9.90;99.90
24252;DHT22;12380;51.118;4.176;2023-10-31T07:36:29;10.00;99.90
24252;DHT22;12380;51.118;4.176;2023-10-31T07:38:57;10.10;99.90
24252;DHT22;12380;51.118;4.176;2023-10-31T07:41:23;10.10;99.90
24252;DHT22;12380;51.118;4.176;2023-10-31T07:43:49;10.20;99.90
24252;DHT22;12380;51.118;4.176;2023-10-31T07:46:14;10.20;99.90
24252;DHT22;12380;51.118;4.176;2023-10-31T07:48:40;10.10;99.90
24252;DHT22;12380;51.118;4.176;2023-10-31T07:51:07;10.10;99.90
24252;DHT22;12380;51.118;4.176;2023-10-31T07:53:33;10.20;99.90
24252;DHT22;12380;51.118;4.176;2023-10-31T07:55:58;10.20;99.90
24252;DHT22;12380;51.118;4.176;2023-10-31T07:58:24;10.10;99.90
24252;DHT22;12380;51.118;4.176;2023-10-31T08:00:50;10.10;99.90
24252;DHT22;12380;51.118;4.176;2023-10-31T08:03:15;10.10;99.90
24252;DHT22;12380;51.118;4.176;2023-10-31T08:05:41;10.20;99.90
24252;DHT22;12380;51.118;4.176;2023-10-31T08:08:07;10.20;99.90
24252;DHT22;12380;51.118;4.176;2023-10-31T08:10:35;10.20;99.90
24252;DHT22;12380;51.118;4.176;2023-10-31T08:13:01;10.20;99.90
24252;DHT22;12380;51.118;4.176;2023-10-31T08:15:26;10.10;99.90
24252;DHT22;12380;51.118;4.176;2023-10-31T08:17:52;10.20;99.90
24252;DHT22;12380;51.118;4.176;2023-10-31T08:20:17;10.20;99.90
24252;DHT22;12380;51.118;4.176;2023-10-31T08:22:43;10.40;99.90
24252;DHT22;12380;51.118;4.176;2023-10-31T08:25:08;10.40;99.90
24252;DHT22;12380;51.118;4.176;2023-10-31T08:27:34;10.40;99.90
24252;DHT22;12380;51.118;4.176;2023-10-31T08:30:02;10.40;99.90
24252;DHT22;12380;51.118;4.176;2023-10-31T08:32:28;10.50;99.90
24252;DHT22;12380;51.118;4.176;2023-10-31T08:34:54;10.60;99.90
24252;DHT22;12380;51.118;4.176;2023-10-31T08:37:19;10.70;99.90
24252;DHT22;12380;51.118;4.176;2023-10-31T08:39:45;10.60;99.90
24252;DHT22;12380;51.118;4.176;2023-10-31T08:42:10;10.60;99.90
24252;DHT22;12380;51.118;4.176;2023-10-31T08:44:36;10.80;99.90
24252;DHT22;12380;51.118;4.176;2023-10-31T08:47:03;10.80;99.90
24252;DHT22;12380;51.118;4.176;2023-10-31T08:49:28;10.70;99.90
24252;DHT22;12380;51.118;4.176;2023-10-31T08:51:56;10.60;99.90
24252;DHT22;12380;51.118;4.176;2023-10-31T08:54:22;10.50;99.90
24252;DHT22;12380;51.118;4.176;2023-10-31T08:56:47;10.50;99.90
24252;DHT22;12380;51.118;4.176;2023-10-31T08:59:13;10.60;99.90
24252;DHT22;12380;51.118;4.176;2023-10-31T09:01:38;10.60;99.90
24252;DHT22;12380;51.118;4.176;2023-10-31T09:04:04;10.60;99.90
24252;DHT22;12380;51.118;4.176;2023-10-31T09:06:30;10.80;99.90
24252;DHT22;12380;51.118;4.176;2023-10-31T09:08:55;10.90;99.90
24252;DHT22;12380;51.118;4.176;2023-10-31T09:11:21;10.90;99.90
24252;DHT22;12380;51.118;4.176;2023-10-31T09:13:47;10.80;99.90
24252;DHT22;12380;51.118;4.176;2023-10-31T09:16:12;10.80;99.90
24252;DHT22;12380;51.118;4.176;2023-10-31T09:18:39;10.80;99.90
24252;DHT22;12380;51.118;4.176;2023-10-31T09:21:04;11.10;99.90
24252;DHT22;12380;51.118;4.176;2023-10-31T09:23:30;11.00;99.90
24252;DHT22;12380;51.118;4.176;2023-10-31T09:25:55;11.00;99.90
24252;DHT22;12380;51.118;4.176;2023-10-31T09:28:21;11.00;99.90
24252;DHT22;12380;51.118;4.176;2023-10-31T09:30:47;10.80;99.90
24252;DHT22;12380;51.118;4.176;2023-10-31T09:33:15;10.80;99.90
24252;DHT22;12380;51.118;4.176;2023-10-31T09:35:41;10.90;99.90
24252;DHT22;12380;51.118;4.176;2023-10-31T09:38:06;11.10;99.90
24252;DHT22;12380;51.118;4.176;2023-10-31T09:40:32;11.50;99.90
24252;DHT22;12380;51.118;4.176;2023-10-31T09:42:57;11.60;99.90
24252;DHT22;12380;51.118;4.176;2023-10-31T09:45:23;11.60;99.90
24252;DHT22;12380;51.118;4.176;2023-10-31T09:47:48;11.50;99.90
24252;DHT22;12380;51.118;4.176;2023-10-31T09:50:14;11.40;99.90
24252;DHT22;12380;51.118;4.176;2023-10-31T09:52:40;11.30;99.90
24252;DHT22;12380;51.118;4.176;2023-10-31T09:55:05;11.40;99.90
24252;DHT22;12380;51.118;4.176;2023-10-31T09:57:31;11.40;99.90
24252;DHT22;12380;51.118;4.176;2023-10-31T09:59:57;11.30;99.90
24252;DHT22;12380;51.118;4.176;2023-10-31T10:02:23;11.50;99.90
24252;DHT22;12380;51.118;4.176;2023-10-31T10:04:48;11.50;99.90
24252;DHT22;12380;51.118;4.176;2023-10-31T10:07:18;11.30;99.90
24252;DHT22;12380;51.118;4.176;2023-10-31T10:09:47;11.30;99.90
24252;DHT22;12380;51.118;4.176;2023-10-31T10:12:13;11.40;99.90
24252;DHT22;12380;51.118;4.176;2023-10-31T10:14:44;11.50;99.90
24252;DHT22;12380;51.118;4.176;2023-10-31T10:17:23;11.40;99.90
24252;DHT22;12380;51.118;4.176;2023-10-31T10:20:10;11.40;99.90
24252;DHT22;12380;51.118;4.176;2023-10-31T10:22:41;11.50;99.90
24252;DHT22;12380;51.118;4.176;2023-10-31T10:25:10;11.50;99.90
24252;DHT22;12380;51.118;4.176;2023-10-31T10:27:41;11.50;99.90
24252;DHT22;12380;51.118;4.176;2023-10-31T10:30:10;11.40;99.90
24252;DHT22;12380;51.118;4.176;2023-10-31T10:32:35;11.40;99.90
24252;DHT22;12380;51.118;4.176;2023-10-31T10:35:01;11.60;99.90
24252;DHT22;12380;51.118;4.176;2023-10-31T10:37:27;11.70;99.90
24252;DHT22;12380;51.118;4.176;2023-10-31T10:39:53;11.60;99.90
24252;DHT22;12380;51.118;4.176;2023-10-31T10:42:27;11.60;99.90
24252;DHT22;12380;51.118;4.176;2023-10-31T10:44:56;11.50;99.90
24252;DHT22;12380;51.118;4.176;2023-10-31T10:47:23;11.70;99.90
24252;DHT22;12380;51.118;4.176;2023-10-31T10:49:50;11.60;99.90
24252;DHT22;12380;51.118;4.176;2023-10-31T10:52:29;11.60;99.90
24252;DHT22;12380;51.118;4.176;2023-10-31T10:55:06;11.70;99.90
24252;DHT22;12380;51.118;4.176;2023-10-31T10:57:38;11.70;99.90
24252;DHT22;12380;51.118;4.176;2023-10-31T11:00:07;11.70;99.90
24252;DHT22;12380;51.118;4.176;2023-10-31T11:02:41;11.50;99.90
24252;DHT22;12380;51.118;4.176;2023-10-31T11:05:08;11.50;99.90
24252;DHT22;12380;51.118;4.176;2023-10-31T11:07:34;11.50;99.90
24252;DHT22;12380;51.118;4.176;2023-10-31T11:09:59;11.60;99.90
24252;DHT22;12380;51.118;4.176;2023-10-31T11:12:29;11.70;99.90
24252;DHT22;12380;51.118;4.176;2023-10-31T11:14:55;11.70;99.90
24252;DHT22;12380;51.118;4.176;2023-10-31T11:17:26;11.70;99.90
24252;DHT22;12380;51.118;4.176;2023-10-31T11:19:53;11.90;99.90
24252;DHT22;12380;51.118;4.176;2023-10-31T11:22:19;11.90;99.90
24252;DHT22;12380;51.118;4.176;2023-10-31T11:24:45;11.80;99.90
24252;DHT22;12380;51.118;4.176;2023-10-31T11:27:11;11.80;99.90
24252;DHT22;12380;51.118;4.176;2023-10-31T11:29:36;11.60;99.90
24252;DHT22;12380;51.118;4.176;2023-10-31T11:32:02;11.40;99.90
24252;DHT22;12380;51.118;4.176;2023-10-31T11:34:31;11.30;99.90
24252;DHT22;12380;51.118;4.176;2023-10-31T11:39:56;11.40;99.90
24252;DHT22;12380;51.118;4.176;2023-10-31T11:42:29;11.50;99.90
24252;DHT22;12380;51.118;4.176;2023-10-31T11:44:56;11.20;99.90
24252;DHT22;12380;51.118;4.176;2023-10-31T11:47:24;11.20;99.90
24252;DHT22;12380;51.118;4.176;2023-10-31T11:49:50;11.00;99.90
24252;DHT22;12380;51.118;4.176;2023-10-31T11:52:16;11.00;99.90
24252;DHT22;12380;51.118;4.176;2023-10-31T11:54:41;11.00;99.90
24252;DHT22;12380;51.118;4.176;2023-10-31T11:57:07;11.10;99.90
24252;DHT22;12380;51.118;4.176;2023-10-31T11:59:39;11.00;99.90
24252;DHT22;12380;51.118;4.176;2023-10-31T12:02:23;11.10;99.90
24252;DHT22;12380;51.118;4.176;2023-10-31T12:04:49;11.00;99.90
24252;DHT22;12380;51.118;4.176;2023-10-31T12:07:14;11.00;99.90
24252;DHT22;12380;51.118;4.176;2023-10-31T12:09:46;11.00;99.90
24252;DHT22;12380;51.118;4.176;2023-10-31T12:12:12;11.10;99.90
24252;DHT22;12380;51.118;4.176;2023-10-31T12:14:38;11.00;99.90
24252;DHT22;12380;51.118;4.176;2023-10-31T12:17:04;11.00;99.90
24252;DHT22;12380;51.118;4.176;2023-10-31T12:19:30;11.00;99.90
24252;DHT22;12380;51.118;4.176;2023-10-31T12:21:58;11.10;99.90
24252;DHT22;12380;51.118;4.176;2023-10-31T12:24:23;11.10;99.90
24252;DHT22;12380;51.118;4.176;2023-10-31T12:26:49;11.10;99.90
24252;DHT22;12380;51.118;4.176;2023-10-31T12:29:20;11.00;99.90
24252;DHT22;12380;51.118;4.176;2023-10-31T12:31:52;11.00;99.90
24252;DHT22;12380;51.118;4.176;2023-10-31T12:34:23;11.10;99.90
24252;DHT22;12380;51.118;4.176;2023-10-31T12:36:49;11.10;99.90
24252;DHT22;12380;51.118;4.176;2023-10-31T12:39:16;11.00;99.90
24252;DHT22;12380;51.118;4.176;2023-10-31T12:41:45;11.00;99.90
24252;DHT22;12380;51.118;4.176;2023-10-31T12:44:11;11.10;99.90
24252;DHT22;12380;51.118;4.176;2023-10-31T12:46:39;11.10;99.90
24252;DHT22;12380;51.118;4.176;2023-10-31T12:49:13;11.10;99.90
24252;DHT22;12380;51.118;4.176;2023-10-31T12:54:35;11.20;99.90
24252;DHT22;12380;51.118;4.176;2023-10-31T12:57:04;11.30;99.90
24252;DHT22;12380;51.118;4.176;2023-10-31T12:59:31;11.40;99.90
24252;DHT22;12380;51.118;4.176;2023-10-31T13:01:57;11.50;99.90
24252;DHT22;12380;51.118;4.176;2023-10-31T13:04:26;11.50;99.90
24252;DHT22;12380;51.118;4.176;2023-10-31T13:06:56;11.60;99.90
24252;DHT22;12380;51.118;4.176;2023-10-31T13:09:21;11.70;99.90
24252;DHT22;12380;51.118;4.176;2023-10-31T13:11:47;11.70;99.90
24252;DHT22;12380;51.118;4.176;2023-10-31T13:14:15;11.70;99.90
24252;DHT22;12380;51.118;4.176;2023-10-31T13:16:41;11.60;99.90
24252;DHT22;12380;51.118;4.176;2023-10-31T13:19:07;11.70;99.90
24252;DHT22;12380;51.118;4.176;2023-10-31T13:21:34;11.60;99.90
24252;DHT22;12380;51.118;4.176;2023-10-31T13:24:00;11.60;99.90
24252;DHT22;12380;51.118;4.176;2023-10-31T13:26:25;11.60;99.90
24252;DHT22;12380;51.118;4.176;2023-10-31T13:28:51;11.50;99.90
24252;DHT22;12380;51.118;4.176;2023-10-31T13:31:17;11.50;99.90
24252;DHT22;12380;51.118;4.176;2023-10-31T13:33:43;11.50;99.90
24252;DHT22;12380;51.118;4.176;2023-10-31T13:36:11;11.50;99.90
24252;DHT22;12380;51.118;4.176;2023-10-31T13:38:37;11.60;99.90
24252;DHT22;12380;51.118;4.176;2023-10-31T13:41:03;11.60;99.90
24252;DHT22;12380;51.118;4.176;2023-10-31T13:43:29;11.70;99.90
24252;DHT22;12380;51.118;4.176;2023-10-31T13:45:54;11.80;99.90
24252;DHT22;12380;51.118;4.176;2023-10-31T13:48:23;12.00;99.90
24252;DHT22;12380;51.118;4.176;2023-10-31T13:50:51;12.20;99.90
24252;DHT22;12380;51.118;4.176;2023-10-31T13:53:19;12.50;99.90
24252;DHT22;12380;51.118;4.176;2023-10-31T13:55:45;12.70;99.90
24252;DHT22;12380;51.118;4.176;2023-10-31T13:58:11;12.90;99.90
24252;DHT22;12380;51.118;4.176;2023-10-31T14:00:36;13.20;99.90
24252;DHT22;12380;51.118;4.176;2023-10-31T14:03:02;13.50;99.90
24252;DHT22;12380;51.118;4.176;2023-10-31T14:05:27;13.70;99.90
24252;DHT22;12380;51.118;4.176;2023-10-31T14:07:53;13.60;99.90
24252;DHT22;12380;51.118;4.176;2023-10-31T14:10:19;13.30;99.90
24252;DHT22;12380;51.118;4.176;2023-10-31T14:12:47;13.20;99.90
24252;DHT22;12380;51.118;4.176;2023-10-31T14:15:12;13.30;99.90
24252;DHT22;12380;51.118;4.176;2023-10-31T14:17:38;13.20;99.90
24252;DHT22;12380;51.118;4.176;2023-10-31T14:20:04;13.10;99.90
24252;DHT22;12380;51.118;4.176;2023-10-31T14:22:29;13.00;99.90
24252;DHT22;12380;51.118;4.176;2023-10-31T14:24:55;12.90;99.90
24252;DHT22;12380;51.118;4.176;2023-10-31T14:27:21;12.70;99.90
24252;DHT22;12380;51.118;4.176;2023-10-31T14:29:48;12.70;99.90
24252;DHT22;12380;51.118;4.176;2023-10-31T14:32:14;12.80;99.90
24252;DHT22;12380;51.118;4.176;2023-10-31T14:34:42;12.70;99.90
24252;DHT22;12380;51.118;4.176;2023-10-31T14:37:08;12.70;99.90
24252;DHT22;12380;51.118;4.176;2023-10-31T14:39:34;12.70;99.90
24252;DHT22;12380;51.118;4.176;2023-10-31T14:41:59;12.70;99.90
24252;DHT22;12380;51.118;4.176;2023-10-31T14:44:26;12.80;99.90
24252;DHT22;12380;51.118;4.176;2023-10-31T14:46:51;12.80;99.90
24252;DHT22;12380;51.118;4.176;2023-10-31T14:49:17;12.90;99.90
24252;DHT22;12380;51.118;4.176;2023-10-31T14:51:42;12.80;99.90
24252;DHT22;12380;51.118;4.176;2023-10-31T14:54:08;12.90;99.90
24252;DHT22;12380;51.118;4.176;2023-10-31T14:56:36;12.90;99.90
24252;DHT22;12380;51.118;4.176;2023-10-31T14:59:02;13.10;99.90
24252;DHT22;12380;51.118;4.176;2023-10-31T15:01:28;13.00;99.90
24252;DHT22;12380;51.118;4.176;2023-10-31T15:03:54;13.00;99.90
24252;DHT22;12380;51.118;4.176;2023-10-31T15:06:22;13.00;99.90
24252;DHT22;12380;51.118;4.176;2023-10-31T15:08:48;13.00;99.90
24252;DHT22;12380;51.118;4.176;2023-10-31T15:11:15;12.90;99.90
24252;DHT22;12380;51.118;4.176;2023-10-31T15:13:42;12.90;99.90
24252;DHT22;12380;51.118;4.176;2023-10-31T15:16:07;12.80;99.90
24252;DHT22;12380;51.118;4.176;2023-10-31T15:18:33;12.90;99.90
24252;DHT22;12380;51.118;4.176;2023-10-31T15:20:59;13.00;99.90
24252;DHT22;12380;51.118;4.176;2023-10-31T15:23:25;13.00;99.90
24252;DHT22;12380;51.118;4.176;2023-10-31T15:25:54;12.70;99.90
24252;DHT22;12380;51.118;4.176;2023-10-31T15:28:22;12.80;99.90
24252;DHT22;12380;51.118;4.176;2023-10-31T15:30:50;12.70;99.90
24252;DHT22;12380;51.118;4.176;2023-10-31T15:33:16;12.60;99.90